sensor_id;sensor_type;location;lat;lon;timestamp;pressure;altitude;pressure_sealevel;temperature;humidity
48614;BME280;34408;51.426;5.444;2023-01-30T00:01:53;101855.94;;;5.93;65.27
48614;BME280;34408;51.426;5.444;2023-01-30T00:04:22;101852.59;;;5.91;65.87
48614;BME280;34408;51.426;5.444;2023-01-30T00:06:50;101846.28;;;5.92;65.74
48614;BME280;34408;51.426;5.444;2023-01-30T00:09:18;101831.25;;;5.91;66.09
48614;BME280;34408;51.426;5.444;2023-01-30T00:11:45;101822.44;;;5.90;66.49
48614;BME280;34408;51.426;5.444;2023-01-30T00:14:13;101824.94;;;5.92;66.18
48614;BME280;34408;51.426;5.444;2023-01-30T00:16:41;101823.09;;;5.92;66.51
48614;BME280;34408;51.426;5.444;2023-01-30T00:19:09;101818.59;;;5.93;65.58
48614;BME280;34408;51.426;5.444;2023-01-30T00:21:38;101814.91;;;5.94;65.63
48614;BME280;34408;51.426;5.444;2023-01-30T00:24:06;101800.75;;;5.93;65.63
48614;BME280;34408;51.426;5.444;2023-01-30T00:26:34;101791.91;;;5.93;65.66
48614;BME280;34408;51.426;5.444;2023-01-30T00:29:02;101788.41;;;5.92;65.53
48614;BME280;34408;51.426;5.444;2023-01-30T00:31:29;101797.25;;;5.93;65.53
48614;BME280;34408;51.426;5.444;2023-01-30T00:33:57;101792.75;;;5.93;66.03
48614;BME280;34408;51.426;5.444;2023-01-30T00:36:25;101807.75;;;5.94;65.84
48614;BME280;34408;51.426;5.444;2023-01-30T00:38:56;101810.25;;;5.96;66.10
48614;BME280;34408;51.426;5.444;2023-01-30T00:41:24;101812.91;;;5.96;66.19
48614;BME280;34408;51.426;5.444;2023-01-30T00:44:12;101781.91;;;5.95;65.64
48614;BME280;34408;51.426;5.444;2023-01-30T00:46:57;101791.41;;;5.97;65.73
48614;BME280;34408;51.426;5.444;2023-01-30T00:49:35;101770.06;;;5.97;66.49
48614;BME280;34408;51.426;5.444;2023-01-30T00:52:04;101782.41;;;5.98;65.82
48614;BME280;34408;51.426;5.444;2023-01-30T00:54:33;101787.75;;;5.98;66.92
48614;BME280;34408;51.426;5.444;2023-01-30T00:57:01;101795.75;;;5.98;66.50
48614;BME280;34408;51.426;5.444;2023-01-30T00:59:29;101786.56;;;6.01;66.13
48614;BME280;34408;51.426;5.444;2023-01-30T01:01:57;101796.41;;;6.00;66.36
48614;BME280;34408;51.426;5.444;2023-01-30T01:04:25;101784.72;;;6.01;66.62
48614;BME280;34408;51.426;5.444;2023-01-30T01:06:52;101779.22;;;6.03;66.04
48614;BME280;34408;51.426;5.444;2023-01-30T01:09:20;101784.56;;;6.03;66.83
48614;BME280;34408;51.426;5.444;2023-01-30T01:11:49;101777.41;;;6.03;66.63
48614;BME280;34408;51.426;5.444;2023-01-30T01:14:17;101787.22;;;6.03;67.24
48614;BME280;34408;51.426;5.444;2023-01-30T01:16:45;101791.56;;;6.04;66.67
48614;BME280;34408;51.426;5.444;2023-01-30T01:19:13;101787.06;;;6.04;66.93
48614;BME280;34408;51.426;5.444;2023-01-30T01:21:41;101779.72;;;6.06;66.70
48614;BME280;34408;51.426;5.444;2023-01-30T01:24:11;101777.06;;;6.06;67.11
48614;BME280;34408;51.426;5.444;2023-01-30T01:26:40;101783.22;;;6.07;66.98
48614;BME280;34408;51.426;5.444;2023-01-30T01:29:11;101779.22;;;6.03;67.14
48614;BME280;34408;51.426;5.444;2023-01-30T01:31:39;101790.41;;;6.06;67.45
48614;BME280;34408;51.426;5.444;2023-01-30T01:34:07;101783.22;;;6.07;67.06
48614;BME280;34408;51.426;5.444;2023-01-30T01:36:35;101772.38;;;6.08;67.67
48614;BME280;34408;51.426;5.444;2023-01-30T01:39:20;101761.88;;;6.07;66.75
48614;BME280;34408;51.426;5.444;2023-01-30T01:41:48;101766.88;;;6.10;67.19
48614;BME280;34408;51.426;5.444;2023-01-30T01:44:16;101762.38;;;6.10;66.80
48614;BME280;34408;51.426;5.444;2023-01-30T01:46:46;101752.53;;;6.11;67.28
48614;BME280;34408;51.426;5.444;2023-01-30T01:49:19;101755.38;;;6.09;67.37
48614;BME280;34408;51.426;5.444;2023-01-30T01:51:51;101753.53;;;6.10;67.80
48614;BME280;34408;51.426;5.444;2023-01-30T01:54:23;101749.69;;;6.12;67.41
48614;BME280;34408;51.426;5.444;2023-01-30T01:56:53;101735.50;;;6.12;67.66
48614;BME280;34408;51.426;5.444;2023-01-30T01:59:25;101725.66;;;6.12;67.16
48614;BME280;34408;51.426;5.444;2023-01-30T02:01:57;101717.84;;;6.11;67.61
48614;BME280;34408;51.426;5.444;2023-01-30T02:04:29;101723.84;;;6.13;67.86
48614;BME280;34408;51.426;5.444;2023-01-30T02:07:24;101712.16;;;6.14;67.07
48614;BME280;34408;51.426;5.444;2023-01-30T02:09:53;101697.16;;;6.13;67.55
48614;BME280;34408;51.426;5.444;2023-01-30T02:12:21;101700.66;;;6.13;67.54
48614;BME280;34408;51.426;5.444;2023-01-30T02:14:51;101701.47;;;6.14;67.49
48614;BME280;34408;51.426;5.444;2023-01-30T02:17:22;101707.47;;;6.16;67.11
48614;BME280;34408;51.426;5.444;2023-01-30T02:19:53;101699.47;;;6.16;67.50
48614;BME280;34408;51.426;5.444;2023-01-30T02:22:33;101706.47;;;6.17;67.08
48614;BME280;34408;51.426;5.444;2023-01-30T02:25:25;101699.47;;;6.16;67.62
48614;BME280;34408;51.426;5.444;2023-01-30T02:31:01;101690.47;;;6.17;68.09
48614;BME280;34408;51.426;5.444;2023-01-30T02:33:38;101680.63;;;6.17;67.80
48614;BME280;34408;51.426;5.444;2023-01-30T02:36:15;101667.28;;;6.17;67.81
48614;BME280;34408;51.426;5.444;2023-01-30T02:38:50;101660.94;;;6.18;67.47
48614;BME280;34408;51.426;5.444;2023-01-30T02:41:25;101659.25;;;6.17;68.10
48614;BME280;34408;51.426;5.444;2023-01-30T02:44:00;101658.25;;;6.18;67.87
48614;BME280;34408;51.426;5.444;2023-01-30T02:46:36;101655.59;;;6.18;68.13
48614;BME280;34408;51.426;5.444;2023-01-30T02:49:08;101656.44;;;6.19;67.68
48614;BME280;34408;51.426;5.444;2023-01-30T02:51:41;101660.94;;;6.18;68.29
48614;BME280;34408;51.426;5.444;2023-01-30T02:54:11;101662.59;;;6.19;68.01
48614;BME280;34408;51.426;5.444;2023-01-30T02:56:43;101661.75;;;6.19;67.95
48614;BME280;34408;51.426;5.444;2023-01-30T02:59:13;101662.41;;;6.21;67.79
48614;BME280;34408;51.426;5.444;2023-01-30T03:02:01;101659.59;;;6.23;67.93
48614;BME280;34408;51.426;5.444;2023-01-30T03:04:50;101656.25;;;6.20;68.42
48614;BME280;34408;51.426;5.444;2023-01-30T03:07:33;101654.91;;;6.25;67.79
48614;BME280;34408;51.426;5.444;2023-01-30T03:10:10;101660.41;;;6.23;68.44
48614;BME280;34408;51.426;5.444;2023-01-30T03:12:46;101665.75;;;6.23;68.35
48614;BME280;34408;51.426;5.444;2023-01-30T03:15:17;101659.41;;;6.24;68.65
48614;BME280;34408;51.426;5.444;2023-01-30T03:17:50;101647.06;;;6.23;68.87
48614;BME280;34408;51.426;5.444;2023-01-30T03:20:19;101645.41;;;6.22;68.59
48614;BME280;34408;51.426;5.444;2023-01-30T03:22:47;101649.75;;;6.23;68.87
48614;BME280;34408;51.426;5.444;2023-01-30T03:25:18;101643.56;;;6.23;68.70
48614;BME280;34408;51.426;5.444;2023-01-30T03:27:49;101642.56;;;6.24;69.00
48614;BME280;34408;51.426;5.444;2023-01-30T03:30:18;101645.22;;;6.24;68.51
48614;BME280;34408;51.426;5.444;2023-01-30T03:32:45;101634.38;;;6.25;68.98
48614;BME280;34408;51.426;5.444;2023-01-30T03:35:15;101627.19;;;6.26;68.69
48614;BME280;34408;51.426;5.444;2023-01-30T03:37:43;101628.88;;;6.27;69.76
48614;BME280;34408;51.426;5.444;2023-01-30T03:40:12;101626.19;;;6.27;69.51
48614;BME280;34408;51.426;5.444;2023-01-30T03:42:40;101631.53;;;6.27;70.36
48614;BME280;34408;51.426;5.444;2023-01-30T03:45:09;101620.84;;;6.27;69.73
48614;BME280;34408;51.426;5.444;2023-01-30T03:47:37;101608.34;;;6.27;70.16
48614;BME280;34408;51.426;5.444;2023-01-30T03:50:05;101601.34;;;6.26;70.10
48614;BME280;34408;51.426;5.444;2023-01-30T03:52:35;101608.34;;;6.27;71.47
48614;BME280;34408;51.426;5.444;2023-01-30T03:55:03;101618.00;;;6.28;70.38
48614;BME280;34408;51.426;5.444;2023-01-30T03:57:31;101610.66;;;6.30;71.42
48614;BME280;34408;51.426;5.444;2023-01-30T03:59:59;101617.84;;;6.30;70.25
48614;BME280;34408;51.426;5.444;2023-01-30T04:02:27;101608.00;;;6.30;71.44
48614;BME280;34408;51.426;5.444;2023-01-30T04:04:55;101608.81;;;6.31;71.49
48614;BME280;34408;51.426;5.444;2023-01-30T04:07:22;101613.34;;;6.30;70.80
48614;BME280;34408;51.426;5.444;2023-01-30T04:09:51;101617.66;;;6.31;71.34
48614;BME280;34408;51.426;5.444;2023-01-30T04:12:19;101618.50;;;6.32;70.64
48614;BME280;34408;51.426;5.444;2023-01-30T04:14:47;101617.50;;;6.33;71.64
48614;BME280;34408;51.426;5.444;2023-01-30T04:17:15;101612.97;;;6.33;70.50
48614;BME280;34408;51.426;5.444;2023-01-30T04:19:42;101612.97;;;6.33;71.21
48614;BME280;34408;51.426;5.444;2023-01-30T04:22:10;101603.13;;;6.34;71.41
48614;BME280;34408;51.426;5.444;2023-01-30T04:24:38;101607.47;;;6.35;70.64
48614;BME280;34408;51.426;5.444;2023-01-30T04:27:07;101601.28;;;6.34;71.60
48614;BME280;34408;51.426;5.444;2023-01-30T04:29:35;101601.47;;;6.33;71.17
48614;BME280;34408;51.426;5.444;2023-01-30T04:32:03;101597.97;;;6.32;71.06
48614;BME280;34408;51.426;5.444;2023-01-30T04:34:31;101600.47;;;6.34;70.32
48614;BME280;34408;51.426;5.444;2023-01-30T04:36:58;101589.78;;;6.34;71.06
48614;BME280;34408;51.426;5.444;2023-01-30T04:39:26;101595.97;;;6.34;69.85
48614;BME280;34408;51.426;5.444;2023-01-30T04:41:54;101603.78;;;6.36;70.90
48614;BME280;34408;51.426;5.444;2023-01-30T04:44:23;101598.44;;;6.36;70.81
48614;BME280;34408;51.426;5.444;2023-01-30T04:46:51;101595.78;;;6.36;71.25
48614;BME280;34408;51.426;5.444;2023-01-30T04:49:18;101593.94;;;6.36;71.13
48614;BME280;34408;51.426;5.444;2023-01-30T04:51:46;101599.94;;;6.38;71.28
48614;BME280;34408;51.426;5.444;2023-01-30T04:54:14;101600.94;;;6.37;71.36
48614;BME280;34408;51.426;5.444;2023-01-30T04:56:42;101600.13;;;6.37;71.47
48614;BME280;34408;51.426;5.444;2023-01-30T04:59:09;101603.44;;;6.39;70.99
48614;BME280;34408;51.426;5.444;2023-01-30T05:01:39;101611.44;;;6.39;71.38
48614;BME280;34408;51.426;5.444;2023-01-30T05:04:07;101611.28;;;6.40;71.35
48614;BME280;34408;51.426;5.444;2023-01-30T05:06:35;101613.09;;;6.40;71.34
48614;BME280;34408;51.426;5.444;2023-01-30T05:09:03;101607.59;;;6.41;71.66
48614;BME280;34408;51.426;5.444;2023-01-30T05:11:31;101616.25;;;6.43;71.65
48614;BME280;34408;51.426;5.444;2023-01-30T05:13:59;101617.28;;;6.42;71.69
48614;BME280;34408;51.426;5.444;2023-01-30T05:16:28;101619.94;;;6.42;71.62
48614;BME280;34408;51.426;5.444;2023-01-30T05:18:57;101612.75;;;6.43;71.45
48614;BME280;34408;51.426;5.444;2023-01-30T05:21:26;101611.75;;;6.44;71.80
48614;BME280;34408;51.426;5.444;2023-01-30T05:23:55;101617.09;;;6.44;71.63
48614;BME280;34408;51.426;5.444;2023-01-30T05:26:23;101605.41;;;6.45;71.94
48614;BME280;34408;51.426;5.444;2023-01-30T05:28:51;101607.91;;;6.46;71.94
48614;BME280;34408;51.426;5.444;2023-01-30T05:31:19;101597.03;;;6.48;72.09
48614;BME280;34408;51.426;5.444;2023-01-30T05:33:48;101606.06;;;6.47;72.58
48614;BME280;34408;51.426;5.444;2023-01-30T05:36:21;101605.22;;;6.46;71.92
48614;BME280;34408;51.426;5.444;2023-01-30T05:38:49;101606.91;;;6.47;71.91
48614;BME280;34408;51.426;5.444;2023-01-30T05:41:17;101609.56;;;6.47;72.09
48614;BME280;34408;51.426;5.444;2023-01-30T05:43:48;101618.59;;;6.46;72.17
48614;BME280;34408;51.426;5.444;2023-01-30T05:46:16;101608.56;;;6.48;72.13
48614;BME280;34408;51.426;5.444;2023-01-30T05:48:44;101602.22;;;6.49;71.50
48614;BME280;34408;51.426;5.444;2023-01-30T05:51:16;101609.22;;;6.50;72.32
48614;BME280;34408;51.426;5.444;2023-01-30T05:53:46;101609.88;;;6.52;72.34
48614;BME280;34408;51.426;5.444;2023-01-30T05:56:14;101601.84;;;6.52;72.17
48614;BME280;34408;51.426;5.444;2023-01-30T05:58:43;101597.53;;;6.51;72.18
48614;BME280;34408;51.426;5.444;2023-01-30T06:01:11;101605.53;;;6.51;72.41
48614;BME280;34408;51.426;5.444;2023-01-30T06:03:39;101614.84;;;6.56;72.63
48614;BME280;34408;51.426;5.444;2023-01-30T06:06:08;101622.94;;;6.70;71.76
48614;BME280;34408;51.426;5.444;2023-01-30T06:08:37;101642.00;;;6.90;70.82
48614;BME280;34408;51.426;5.444;2023-01-30T06:11:09;101631.81;;;7.08;70.87
48614;BME280;34408;51.426;5.444;2023-01-30T06:13:37;101625.31;;;7.26;70.45
48614;BME280;34408;51.426;5.444;2023-01-30T06:16:06;101625.53;;;7.39;70.27
48614;BME280;34408;51.426;5.444;2023-01-30T06:18:34;101626.56;;;7.53;69.81
48614;BME280;34408;51.426;5.444;2023-01-30T06:21:03;101619.00;;;7.71;69.09
48614;BME280;34408;51.426;5.444;2023-01-30T06:23:31;101625.38;;;7.84;69.24
48614;BME280;34408;51.426;5.444;2023-01-30T06:25:59;101628.88;;;8.00;67.97
48614;BME280;34408;51.426;5.444;2023-01-30T06:28:31;101628.59;;;8.09;68.24
48614;BME280;34408;51.426;5.444;2023-01-30T06:30:59;101623.34;;;8.01;67.54
48614;BME280;34408;51.426;5.444;2023-01-30T06:33:27;101635.72;;;7.88;68.74
48614;BME280;34408;51.426;5.444;2023-01-30T06:35:55;101640.41;;;7.71;68.99
48614;BME280;34408;51.426;5.444;2023-01-30T06:38:23;101649.25;;;7.57;69.93
48614;BME280;34408;51.426;5.444;2023-01-30T06:40:51;101664.91;;;7.45;69.84
48614;BME280;34408;51.426;5.444;2023-01-30T06:43:19;101659.81;;;7.35;70.62
48614;BME280;34408;51.426;5.444;2023-01-30T06:45:48;101656.66;;;7.32;70.96
48614;BME280;34408;51.426;5.444;2023-01-30T06:48:16;101636.19;;;7.24;71.10
48614;BME280;34408;51.426;5.444;2023-01-30T06:50:45;101645.41;;;7.22;71.44
48614;BME280;34408;51.426;5.444;2023-01-30T06:53:13;101661.78;;;7.18;71.50
48614;BME280;34408;51.426;5.444;2023-01-30T06:55:40;101666.84;;;7.13;71.96
48614;BME280;34408;51.426;5.444;2023-01-30T06:58:10;101667.38;;;7.09;72.21
48614;BME280;34408;51.426;5.444;2023-01-30T07:00:39;101672.06;;;7.07;72.15
48614;BME280;34408;51.426;5.444;2023-01-30T07:03:10;101673.44;;;7.03;72.08
48614;BME280;34408;51.426;5.444;2023-01-30T07:05:39;101651.41;;;7.01;72.18
48614;BME280;34408;51.426;5.444;2023-01-30T07:08:07;101646.41;;;6.98;71.90
48614;BME280;34408;51.426;5.444;2023-01-30T07:10:35;101642.91;;;6.97;71.98
48614;BME280;34408;51.426;5.444;2023-01-30T07:13:03;101655.63;;;6.95;71.83
48614;BME280;34408;51.426;5.444;2023-01-30T07:15:31;101657.69;;;6.93;71.76
48614;BME280;34408;51.426;5.444;2023-01-30T07:17:59;101655.19;;;6.92;71.91
48614;BME280;34408;51.426;5.444;2023-01-30T07:20:28;101667.88;;;6.90;71.80
48614;BME280;34408;51.426;5.444;2023-01-30T07:22:57;101671.75;;;6.87;71.77
48614;BME280;34408;51.426;5.444;2023-01-30T07:25:26;101674.25;;;6.89;71.83
48614;BME280;34408;51.426;5.444;2023-01-30T07:27:56;101674.59;;;6.85;73.07
48614;BME280;34408;51.426;5.444;2023-01-30T07:30:24;101683.78;;;6.83;71.86
48614;BME280;34408;51.426;5.444;2023-01-30T07:32:54;101673.94;;;6.83;72.00
48614;BME280;34408;51.426;5.444;2023-01-30T07:35:24;101680.47;;;6.81;72.10
48614;BME280;34408;51.426;5.444;2023-01-30T07:37:53;101679.47;;;6.82;71.79
48614;BME280;34408;51.426;5.444;2023-01-30T07:40:22;101690.97;;;6.82;72.13
48614;BME280;34408;51.426;5.444;2023-01-30T07:42:57;101692.81;;;6.82;72.02
48614;BME280;34408;51.426;5.444;2023-01-30T07:45:33;101689.31;;;6.81;71.10
48614;BME280;34408;51.426;5.444;2023-01-30T07:48:01;101691.81;;;6.83;71.19
48614;BME280;34408;51.426;5.444;2023-01-30T07:50:29;101705.34;;;6.81;71.17
48614;BME280;34408;51.426;5.444;2023-01-30T07:52:58;101699.34;;;6.79;70.77
48614;BME280;34408;51.426;5.444;2023-01-30T07:55:26;101701.19;;;6.79;70.72
48614;BME280;34408;51.426;5.444;2023-01-30T07:57:54;101698.22;;;6.74;70.71
48614;BME280;34408;51.426;5.444;2023-01-30T08:00:22;101701.38;;;6.77;70.20
48614;BME280;34408;51.426;5.444;2023-01-30T08:02:50;101696.19;;;6.76;70.42
48614;BME280;34408;51.426;5.444;2023-01-30T08:05:18;101694.53;;;6.75;70.22
48614;BME280;34408;51.426;5.444;2023-01-30T08:07:46;101702.53;;;6.75;69.99
48614;BME280;34408;51.426;5.444;2023-01-30T08:10:15;101707.06;;;6.74;69.91
48614;BME280;34408;51.426;5.444;2023-01-30T08:12:44;101706.22;;;6.74;70.16
48614;BME280;34408;51.426;5.444;2023-01-30T08:15:11;101706.22;;;6.74;70.18
48614;BME280;34408;51.426;5.444;2023-01-30T08:17:39;101711.56;;;6.74;70.24
48614;BME280;34408;51.426;5.444;2023-01-30T08:20:08;101712.41;;;6.74;69.82
48614;BME280;34408;51.426;5.444;2023-01-30T08:22:36;101716.91;;;6.74;70.08
48614;BME280;34408;51.426;5.444;2023-01-30T08:25:05;101710.72;;;6.73;69.92
48614;BME280;34408;51.426;5.444;2023-01-30T08:27:34;101716.91;;;6.74;69.44
48614;BME280;34408;51.426;5.444;2023-01-30T08:30:02;101734.59;;;6.75;69.44
48614;BME280;34408;51.426;5.444;2023-01-30T08:32:30;101739.94;;;6.75;68.99
48614;BME280;34408;51.426;5.444;2023-01-30T08:34:59;101747.31;;;6.73;69.28
48614;BME280;34408;51.426;5.444;2023-01-30T08:37:26;101736.28;;;6.76;68.90
48614;BME280;34408;51.426;5.444;2023-01-30T08:39:54;101743.28;;;6.77;68.94
48614;BME280;34408;51.426;5.444;2023-01-30T08:42:22;101746.28;;;6.74;68.78
48614;BME280;34408;51.426;5.444;2023-01-30T08:44:51;101744.63;;;6.73;68.35
48614;BME280;34408;51.426;5.444;2023-01-30T08:47:19;101751.47;;;6.75;68.46
48614;BME280;34408;51.426;5.444;2023-01-30T08:49:46;101753.75;;;6.87;68.04
48614;BME280;34408;51.426;5.444;2023-01-30T08:52:16;101748.63;;;7.00;67.84
48614;BME280;34408;51.426;5.444;2023-01-30T08:54:44;101745.84;;;7.16;67.15
48614;BME280;34408;51.426;5.444;2023-01-30T08:57:12;101746.09;;;7.29;66.25
48614;BME280;34408;51.426;5.444;2023-01-30T08:59:40;101749.59;;;7.53;65.40
48614;BME280;34408;51.426;5.444;2023-01-30T09:02:10;101748.97;;;7.65;65.44
48614;BME280;34408;51.426;5.444;2023-01-30T09:04:39;101760.75;;;7.79;64.63
48614;BME280;34408;51.426;5.444;2023-01-30T09:07:06;101754.94;;;7.90;63.65
48614;BME280;34408;51.426;5.444;2023-01-30T09:09:34;101763.72;;;7.99;63.42
48614;BME280;34408;51.426;5.444;2023-01-30T09:12:02;101770.94;;;7.98;63.48
48614;BME280;34408;51.426;5.444;2023-01-30T09:14:30;101780.69;;;7.91;63.95
48614;BME280;34408;51.426;5.444;2023-01-30T09:16:58;101769.22;;;7.82;64.07
48614;BME280;34408;51.426;5.444;2023-01-30T09:19:27;101780.00;;;7.74;64.60
48614;BME280;34408;51.426;5.444;2023-01-30T09:21:55;101771.44;;;7.79;64.08
48614;BME280;34408;51.426;5.444;2023-01-30T09:24:23;101776.19;;;7.92;63.94
48614;BME280;34408;51.426;5.444;2023-01-30T09:26:52;101790.78;;;8.04;62.96
48614;BME280;34408;51.426;5.444;2023-01-30T09:29:23;101791.06;;;8.09;63.00
48614;BME280;34408;51.426;5.444;2023-01-30T09:31:51;101788.94;;;8.04;62.50
48614;BME280;34408;51.426;5.444;2023-01-30T09:34:19;101789.38;;;7.93;63.44
48614;BME280;34408;51.426;5.444;2023-01-30T09:36:48;101793.69;;;7.79;63.83
48614;BME280;34408;51.426;5.444;2023-01-30T09:39:16;101791.63;;;7.67;64.18
48614;BME280;34408;51.426;5.444;2023-01-30T09:42:04;101787.69;;;7.55;64.35
48614;BME280;34408;51.426;5.444;2023-01-30T09:45:09;101794.94;;;7.46;64.13
48614;BME280;34408;51.426;5.444;2023-01-30T09:47:45;101801.59;;;7.50;64.56
48614;BME280;34408;51.426;5.444;2023-01-30T09:50:29;101807.84;;;7.65;63.84
48614;BME280;34408;51.426;5.444;2023-01-30T09:53:08;101810.22;;;7.83;63.49
48614;BME280;34408;51.426;5.444;2023-01-30T09:55:40;101804.44;;;7.94;63.16
48614;BME280;34408;51.426;5.444;2023-01-30T09:58:15;101806.09;;;7.95;63.10
48614;BME280;34408;51.426;5.444;2023-01-30T10:00:44;101808.47;;;7.90;62.96
48614;BME280;34408;51.426;5.444;2023-01-30T10:03:15;101814.91;;;7.81;63.33
48614;BME280;34408;51.426;5.444;2023-01-30T10:05:47;101816.16;;;7.70;63.72
48614;BME280;34408;51.426;5.444;2023-01-30T10:08:44;101822.41;;;7.63;63.73
48614;BME280;34408;51.426;5.444;2023-01-30T10:11:25;101814.25;;;7.56;63.89
48614;BME280;34408;51.426;5.444;2023-01-30T10:14:12;101814.16;;;7.49;63.62
48614;BME280;34408;51.426;5.444;2023-01-30T10:16:45;101820.84;;;7.45;63.79
48614;BME280;34408;51.426;5.444;2023-01-30T10:19:41;101826.38;;;7.44;63.31
48614;BME280;34408;51.426;5.444;2023-01-30T10:22:20;101825.72;;;7.42;63.46
48614;BME280;34408;51.426;5.444;2023-01-30T10:25:01;101825.38;;;7.45;63.60
48614;BME280;34408;51.426;5.444;2023-01-30T10:27:35;101829.78;;;7.61;63.12
48614;BME280;34408;51.426;5.444;2023-01-30T10:30:06;101846.72;;;7.76;62.57
48614;BME280;34408;51.426;5.444;2023-01-30T10:32:40;101851.59;;;7.95;62.05
48614;BME280;34408;51.426;5.444;2023-01-30T10:35:15;101835.38;;;8.11;61.79
48614;BME280;34408;51.426;5.444;2023-01-30T10:37:50;101842.44;;;8.27;60.75
48614;BME280;34408;51.426;5.444;2023-01-30T10:40:25;101838.63;;;8.44;60.24
48614;BME280;34408;51.426;5.444;2023-01-30T10:43:02;101836.78;;;8.60;59.91
48614;BME280;34408;51.426;5.444;2023-01-30T10:45:37;101835.91;;;8.74;59.24
48614;BME280;34408;51.426;5.444;2023-01-30T10:48:29;101840.81;;;8.85;58.58
48614;BME280;34408;51.426;5.444;2023-01-30T10:51:19;101839.13;;;8.99;58.18
48614;BME280;34408;51.426;5.444;2023-01-30T10:53:53;101832.38;;;9.03;57.90
48614;BME280;34408;51.426;5.444;2023-01-30T10:56:34;101848.09;;;9.06;57.59
48614;BME280;34408;51.426;5.444;2023-01-30T10:59:10;101854.47;;;9.05;57.47
48614;BME280;34408;51.426;5.444;2023-01-30T11:01:44;101859.00;;;9.04;57.68
48614;BME280;34408;51.426;5.444;2023-01-30T11:04:22;101858.44;;;9.09;56.86
48614;BME280;34408;51.426;5.444;2023-01-30T11:06:52;101852.31;;;9.15;56.64
48614;BME280;34408;51.426;5.444;2023-01-30T11:09:22;101860.28;;;9.08;56.83
48614;BME280;34408;51.426;5.444;2023-01-30T11:11:52;101857.59;;;9.08;56.70
48614;BME280;34408;51.426;5.444;2023-01-30T11:14:21;101854.00;;;9.01;57.22
48614;BME280;34408;51.426;5.444;2023-01-30T11:16:50;101853.66;;;8.90;57.49
48614;BME280;34408;51.426;5.444;2023-01-30T11:19:22;101859.00;;;8.75;58.19
48614;BME280;34408;51.426;5.444;2023-01-30T11:21:52;101861.44;;;8.55;58.41
48614;BME280;34408;51.426;5.444;2023-01-30T11:24:23;101859.94;;;8.38;58.85
48614;BME280;34408;51.426;5.444;2023-01-30T11:27:08;101858.22;;;8.22;59.03
48614;BME280;34408;51.426;5.444;2023-01-30T11:29:38;101859.13;;;8.14;58.86
48614;BME280;34408;51.426;5.444;2023-01-30T11:32:11;101856.34;;;8.08;59.44
48614;BME280;34408;51.426;5.444;2023-01-30T11:34:42;101858.25;;;7.99;59.40
48614;BME280;34408;51.426;5.444;2023-01-30T11:37:17;101867.84;;;7.94;59.64
48614;BME280;34408;51.426;5.444;2023-01-30T11:39:50;101871.53;;;7.93;60.20
48614;BME280;34408;51.426;5.444;2023-01-30T11:42:24;101868.25;;;8.05;59.47
48614;BME280;34408;51.426;5.444;2023-01-30T11:44:56;101870.59;;;8.23;58.86
48614;BME280;34408;51.426;5.444;2023-01-30T11:47:48;101870.09;;;8.42;58.67
48614;BME280;34408;51.426;5.444;2023-01-30T11:50:28;101881.03;;;8.56;58.59
48614;BME280;34408;51.426;5.444;2023-01-30T11:53:15;101873.44;;;8.74;57.45
48614;BME280;34408;51.426;5.444;2023-01-30T11:55:44;101869.91;;;8.88;57.11
48614;BME280;34408;51.426;5.444;2023-01-30T11:58:30;101851.69;;;8.98;56.42
48614;BME280;34408;51.426;5.444;2023-01-30T12:00:59;101872.69;;;9.09;55.41
48614;BME280;34408;51.426;5.444;2023-01-30T12:03:28;101875.34;;;9.09;55.76
48614;BME280;34408;51.426;5.444;2023-01-30T12:05:57;101876.09;;;9.03;55.87
48614;BME280;34408;51.426;5.444;2023-01-30T12:08:31;101871.41;;;8.91;56.39
48614;BME280;34408;51.426;5.444;2023-01-30T12:11:24;101876.66;;;8.69;56.84
48614;BME280;34408;51.426;5.444;2023-01-30T12:13:54;101877.06;;;8.52;57.41
48614;BME280;34408;51.426;5.444;2023-01-30T12:16:27;101869.63;;;8.39;58.33
48614;BME280;34408;51.426;5.444;2023-01-30T12:19:04;101870.06;;;8.28;57.90
48614;BME280;34408;51.426;5.444;2023-01-30T12:21:41;101881.66;;;8.20;57.94
48614;BME280;34408;51.426;5.444;2023-01-30T12:24:19;101869.00;;;8.14;58.27
48614;BME280;34408;51.426;5.444;2023-01-30T12:26:51;101867.88;;;8.08;58.25
48614;BME280;34408;51.426;5.444;2023-01-30T12:29:26;101860.22;;;8.05;58.59
48614;BME280;34408;51.426;5.444;2023-01-30T12:32:03;101868.97;;;7.99;58.64
48614;BME280;34408;51.426;5.444;2023-01-30T12:34:32;101862.31;;;7.95;58.42
48614;BME280;34408;51.426;5.444;2023-01-30T12:37:14;101867.19;;;7.92;59.14
48614;BME280;34408;51.426;5.444;2023-01-30T12:39:54;101867.53;;;7.89;58.87
48614;BME280;34408;51.426;5.444;2023-01-30T12:42:46;101875.09;;;7.85;59.24
48614;BME280;34408;51.426;5.444;2023-01-30T12:45:21;101875.28;;;7.83;59.22
48614;BME280;34408;51.426;5.444;2023-01-30T12:48:02;101877.22;;;7.90;59.37
48614;BME280;34408;51.426;5.444;2023-01-30T12:50:42;101867.78;;;8.02;58.54
48614;BME280;34408;51.426;5.444;2023-01-30T12:53:31;101883.28;;;8.06;58.64
48614;BME280;34408;51.426;5.444;2023-01-30T12:56:20;101879.97;;;8.04;58.45
48614;BME280;34408;51.426;5.444;2023-01-30T12:58:53;101891.69;;;8.03;58.55
48614;BME280;34408;51.426;5.444;2023-01-30T13:01:27;101891.22;;;8.00;58.65
48614;BME280;34408;51.426;5.444;2023-01-30T13:04:05;101897.94;;;7.96;58.93
48614;BME280;34408;51.426;5.444;2023-01-30T13:07:00;101906.66;;;7.90;58.65
48614;BME280;34408;51.426;5.444;2023-01-30T13:09:49;101886.50;;;7.79;58.49
48614;BME280;34408;51.426;5.444;2023-01-30T13:12:20;101913.56;;;7.84;58.98
48614;BME280;34408;51.426;5.444;2023-01-30T13:14:56;101910.06;;;7.83;59.22
48614;BME280;34408;51.426;5.444;2023-01-30T13:17:40;101918.44;;;7.80;58.69
48614;BME280;34408;51.426;5.444;2023-01-30T13:20:22;101915.28;;;7.77;59.20
48614;BME280;34408;51.426;5.444;2023-01-30T13:23:00;101917.97;;;7.77;59.45
48614;BME280;34408;51.426;5.444;2023-01-30T13:25:35;101919.97;;;7.75;59.67
48614;BME280;34408;51.426;5.444;2023-01-30T13:28:10;101916.66;;;7.73;60.19